Time;durP1;ratioP1;P1;durP2;ratioP2;P2;SDS_P1;SDS_P2;PMS_P1;PMS_P2;Temp;Humidity;BMP_temperature;BMP_pressure;BME280_temperature;BME280_humidity;BME280_pressure;Samples;Min_cycle;Max_cycle;Signal;HPM_P1;HPM_P2
2023/03/18 00:00:00;;;;;;;10.10;4.30;;;11.40;99.90;;;;;;5051560;28;20377;-77
2023/03/18 00:02:26;;;;;;;8.50;4.03;;;11.40;99.90;;;;;;5050766;28;20072;-77
2023/03/18 00:04:51;;;;;;;8.35;4.10;;;11.40;99.90;;;;;;5032175;28;20045;-77
2023/03/18 00:07:17;;;;;;;9.40;4.32;;;11.40;99.90;;;;;;5046043;28;20048;-77
2023/03/18 00:09:43;;;;;;;9.18;3.95;;;11.40;99.90;;;;;;5044006;28;20037;-77
2023/03/18 00:12:09;;;;;;;8.27;4.07;;;11.40;99.90;;;;;;5034733;28;20098;-77
2023/03/18 00:14:37;;;;;;;9.75;4.32;;;11.40;99.90;;;;;;5055678;28;20048;-77
2023/03/18 00:17:04;;;;;;;8.50;4.22;;;11.40;99.90;;;;;;5054566;28;20094;-77
2023/03/18 00:19:32;;;;;;;10.90;4.22;;;11.40;99.90;;;;;;5056591;28;20532;-77
2023/03/18 00:21:58;;;;;;;9.20;4.28;;;11.40;99.90;;;;;;5040378;28;20355;-77
2023/03/18 00:24:26;;;;;;;10.88;4.70;;;11.40;99.90;;;;;;5042233;28;20380;-77
2023/03/18 00:26:52;;;;;;;9.43;4.47;;;11.40;99.90;;;;;;5055216;28;20048;-77
2023/03/18 00:29:18;;;;;;;9.95;4.45;;;11.40;99.90;;;;;;5048341;28;20055;-77
2023/03/18 00:31:45;;;;;;;9.55;4.22;;;11.30;99.90;;;;;;5036123;28;20041;-77
2023/03/18 00:34:10;;;;;;;9.10;4.20;;;11.30;99.90;;;;;;5035191;28;20052;-77
2023/03/18 00:36:37;;;;;;;8.98;4.35;;;11.30;99.90;;;;;;5054865;28;20057;-77
2023/03/18 00:39:03;;;;;;;8.27;4.20;;;11.30;99.90;;;;;;5056208;28;20041;-77
2023/03/18 00:41:31;;;;;;;8.10;4.40;;;11.30;99.90;;;;;;5054473;28;20055;-78
2023/03/18 00:43:58;;;;;;;9.60;4.50;;;11.20;99.90;;;;;;5041641;28;20045;-77
2023/03/18 00:46:25;;;;;;;8.75;4.38;;;11.20;99.90;;;;;;5026899;28;20045;-77
2023/03/18 00:49:04;;;;;;;9.02;4.35;;;11.20;99.90;;;;;;5067782;28;20049;-77
2023/03/18 00:51:32;;;;;;;8.60;4.45;;;11.20;99.90;;;;;;5053929;28;20124;-77
2023/03/18 00:54:01;;;;;;;8.68;4.40;;;11.10;99.90;;;;;;5054935;28;20060;-77
2023/03/18 00:56:29;;;;;;;9.20;4.53;;;11.10;99.90;;;;;;5055577;28;20246;-77
2023/03/18 00:58:56;;;;;;;11.13;4.70;;;11.00;99.90;;;;;;5048475;28;20041;-77
2023/03/18 01:01:22;;;;;;;9.73;4.80;;;10.90;99.90;;;;;;5055591;28;20048;-77
2023/03/18 01:03:49;;;;;;;9.10;4.63;;;10.90;99.90;;;;;;5049592;28;20245;-77
2023/03/18 01:06:21;;;;;;;9.55;4.82;;;10.80;99.90;;;;;;5028813;28;20041;-77
2023/03/18 01:08:48;;;;;;;8.55;4.57;;;10.80;99.90;;;;;;5023753;28;20037;-77
2023/03/18 01:11:14;;;;;;;9.65;4.95;;;10.70;99.90;;;;;;5055030;28;20437;-77
2023/03/18 01:13:40;;;;;;;8.77;4.65;;;10.60;99.90;;;;;;5052460;28;20055;-77
2023/03/18 01:16:08;;;;;;;9.43;5.03;;;10.60;99.90;;;;;;5055930;28;20542;-77
2023/03/18 01:18:35;;;;;;;10.43;5.15;;;10.60;99.90;;;;;;5053521;28;20052;-77
2023/03/18 01:21:01;;;;;;;9.00;4.72;;;10.60;99.90;;;;;;5054014;28;20048;-77
2023/03/18 01:23:29;;;;;;;10.38;5.00;;;10.50;99.90;;;;;;5054218;28;20045;-76
2023/03/18 01:25:55;;;;;;;8.57;4.72;;;10.50;99.90;;;;;;5048404;28;20045;-77
2023/03/18 01:28:21;;;;;;;10.65;5.10;;;10.40;99.90;;;;;;5042286;28;20049;-77
2023/03/18 01:30:48;;;;;;;10.68;4.95;;;10.40;99.90;;;;;;5037791;28;20053;-77
2023/03/18 01:33:15;;;;;;;8.82;5.00;;;10.30;99.90;;;;;;5053471;28;20056;-76
2023/03/18 01:35:41;;;;;;;9.75;5.15;;;10.30;99.90;;;;;;5039742;28;20048;-77
2023/03/18 01:38:07;;;;;;;10.73;5.30;;;10.20;99.90;;;;;;5055274;28;20386;-77
2023/03/18 01:40:36;;;;;;;8.45;5.10;;;10.20;99.90;;;;;;5049963;28;20042;-77
2023/03/18 01:43:15;;;;;;;13.05;5.20;;;10.20;99.90;;;;;;5043868;28;20037;-77
2023/03/18 01:45:46;;;;;;;9.70;5.35;;;10.10;99.90;;;;;;5051378;28;20343;-77
2023/03/18 01:48:17;;;;;;;10.80;5.30;;;10.10;99.90;;;;;;5037074;28;20049;-77
2023/03/18 01:50:46;;;;;;;10.13;5.18;;;10.10;99.90;;;;;;5053095;28;20393;-77
2023/03/18 01:53:15;;;;;;;9.32;5.18;;;10.10;99.90;;;;;;5044347;28;20119;-77
2023/03/18 01:55:42;;;;;;;9.90;4.97;;;10.10;99.90;;;;;;5031066;28;20047;-77
2023/03/18 01:58:16;;;;;;;10.40;5.00;;;10.10;99.90;;;;;;5041740;28;20120;-77
2023/03/18 02:00:47;;;;;;;8.52;5.10;;;10.20;99.90;;;;;;5052749;28;20052;-77
2023/03/18 02:03:14;;;;;;;9.35;5.03;;;10.20;99.90;;;;;;5053944;28;20037;-77
2023/03/18 02:05:42;;;;;;;10.68;5.07;;;10.30;99.90;;;;;;5039221;28;20114;-77
2023/03/18 02:08:08;;;;;;;10.45;5.10;;;10.30;99.90;;;;;;5053409;28;20037;-77
2023/03/18 02:10:35;;;;;;;12.20;5.57;;;10.30;99.90;;;;;;5053593;28;20396;-77
2023/03/18 02:13:06;;;;;;;10.07;5.50;;;10.20;99.90;;;;;;5053999;28;20595;-77
2023/03/18 02:15:34;;;;;;;11.50;5.47;;;10.20;99.90;;;;;;5039379;28;20041;-77
2023/03/18 02:18:06;;;;;;;8.93;5.50;;;10.20;99.90;;;;;;5052821;28;20049;-77
2023/03/18 02:21:02;;;;;;;10.32;6.22;;;10.10;99.90;;;;;;5054096;28;20057;-77
2023/03/18 02:23:42;;;;;;;10.73;6.10;;;10.00;99.90;;;;;;5052947;28;20049;-77
2023/03/18 02:26:19;;;;;;;10.35;5.78;;;10.00;99.90;;;;;;5040161;28;20055;-77
2023/03/18 02:28:48;;;;;;;11.52;6.18;;;9.90;99.90;;;;;;5054169;28;20059;-78
2023/03/18 02:31:15;;;;;;;11.45;6.30;;;9.90;99.90;;;;;;5016568;28;20069;-78
2023/03/18 02:33:42;;;;;;;8.75;5.75;;;9.80;99.90;;;;;;5041723;28;20044;-78
2023/03/18 02:36:17;;;;;;;10.88;6.05;;;9.80;99.90;;;;;;5034959;28;20079;-77
2023/03/18 02:38:44;;;;;;;10.13;6.00;;;9.70;99.90;;;;;;5036328;28;20056;-77
2023/03/18 02:41:24;;;;;;;13.82;6.35;;;9.70;99.90;;;;;;5046578;28;20116;-77
2023/03/18 02:43:51;;;;;;;13.90;6.93;;;9.70;99.90;;;;;;5036275;28;20509;-77
2023/03/18 02:46:19;;;;;;;12.57;6.93;;;9.60;99.90;;;;;;5035888;28;20059;-77
2023/03/18 02:48:45;;;;;;;12.48;7.30;;;9.60;99.90;;;;;;5053881;28;20048;-77
2023/03/18 02:51:13;;;;;;;12.27;7.15;;;9.60;99.90;;;;;;5035832;28;20128;-77
2023/03/18 02:53:40;;;;;;;11.93;6.63;;;9.50;99.90;;;;;;5035765;28;20136;-77
2023/03/18 02:56:07;;;;;;;11.73;7.18;;;9.50;99.90;;;;;;5006374;28;20060;-77
2023/03/18 02:58:33;;;;;;;11.95;7.32;;;9.50;99.90;;;;;;5035912;28;20045;-77
2023/03/18 03:01:00;;;;;;;12.40;7.50;;;9.50;99.90;;;;;;5035235;28;20087;-77
2023/03/18 03:03:27;;;;;;;11.50;7.68;;;9.40;99.90;;;;;;5035406;28;20045;-77
2023/03/18 03:05:54;;;;;;;13.98;8.10;;;9.40;99.90;;;;;;5035229;28;20309;-77
2023/03/18 03:08:20;;;;;;;12.70;8.32;;;9.40;99.90;;;;;;5035807;28;20053;-77
2023/03/18 03:10:47;;;;;;;13.45;8.30;;;9.30;99.90;;;;;;5016170;28;20372;-77
2023/03/18 03:13:13;;;;;;;14.38;8.50;;;9.40;99.90;;;;;;5046400;28;20183;-77
2023/03/18 03:15:39;;;;;;;12.52;8.18;;;9.40;99.90;;;;;;5028182;28;20544;-77
2023/03/18 03:18:06;;;;;;;13.27;8.60;;;9.50;99.90;;;;;;5034632;28;20496;-78
2023/03/18 03:20:34;;;;;;;13.48;8.02;;;9.40;99.90;;;;;;5035260;28;20511;-78
2023/03/18 03:23:02;;;;;;;13.52;8.43;;;9.40;99.90;;;;;;5035133;28;20048;-78
2023/03/18 03:25:29;;;;;;;14.48;8.32;;;9.50;99.90;;;;;;5035130;28;20111;-77
2023/03/18 03:27:55;;;;;;;14.82;8.60;;;9.40;99.90;;;;;;5034968;28;20083;-78
2023/03/18 03:30:22;;;;;;;13.02;8.35;;;9.40;99.90;;;;;;5035492;28;20388;-78
2023/03/18 03:32:48;;;;;;;12.38;8.35;;;9.40;99.90;;;;;;5034595;28;20103;-78
2023/03/18 03:35:16;;;;;;;13.70;7.80;;;9.40;99.90;;;;;;5021371;28;20049;-78
2023/03/18 03:37:42;;;;;;;13.50;8.02;;;9.30;99.90;;;;;;5035105;28;20520;-78
2023/03/18 03:40:15;;;;;;;13.38;8.00;;;9.30;99.90;;;;;;5034796;28;20482;-77
2023/03/18 03:42:42;;;;;;;14.18;8.07;;;9.30;99.90;;;;;;5034943;28;20497;-78
2023/03/18 03:45:09;;;;;;;11.63;7.38;;;9.20;99.90;;;;;;5052824;28;20096;-78
2023/03/18 03:47:35;;;;;;;12.57;8.15;;;9.20;99.90;;;;;;5034202;28;20371;-78
2023/03/18 03:50:01;;;;;;;11.38;7.57;;;9.20;99.90;;;;;;5018251;28;20052;-78
2023/03/18 03:52:27;;;;;;;15.02;8.00;;;9.20;99.90;;;;;;4998252;28;20045;-78
2023/03/18 03:54:55;;;;;;;13.23;8.27;;;9.20;99.90;;;;;;5027696;28;20167;-78
2023/03/18 03:57:25;;;;;;;13.32;8.57;;;9.20;99.90;;;;;;5034622;28;20060;-78
2023/03/18 03:59:51;;;;;;;13.68;8.30;;;9.20;99.90;;;;;;5034654;28;20504;-78
2023/03/18 04:02:17;;;;;;;12.43;8.38;;;9.10;99.90;;;;;;5034223;28;20137;-78
2023/03/18 04:04:44;;;;;;;12.48;8.07;;;9.10;99.90;;;;;;5031716;28;20486;-77
2023/03/18 04:07:10;;;;;;;12.45;8.60;;;9.10;99.90;;;;;;5029454;28;20049;-78
2023/03/18 04:09:37;;;;;;;14.40;8.82;;;9.10;99.90;;;;;;5052763;28;20088;-78
2023/03/18 04:12:04;;;;;;;14.55;8.57;;;9.10;99.90;;;;;;5034808;28;20060;-78
2023/03/18 04:14:30;;;;;;;14.13;8.75;;;9.10;99.90;;;;;;5014803;28;20041;-78
2023/03/18 04:16:58;;;;;;;12.93;9.35;;;9.20;99.90;;;;;;5026120;28;20091;-78
2023/03/18 04:19:24;;;;;;;14.75;8.80;;;9.20;99.90;;;;;;5034668;28;20053;-78
2023/03/18 04:21:50;;;;;;;14.88;9.32;;;9.20;99.90;;;;;;5030335;28;20060;-78
2023/03/18 04:24:16;;;;;;;13.50;9.77;;;9.20;99.90;;;;;;5031179;28;20064;-78
2023/03/18 04:26:42;;;;;;;14.02;9.02;;;9.20;99.90;;;;;;5034596;28;20044;-78
2023/03/18 04:29:08;;;;;;;12.55;8.45;;;9.10;99.90;;;;;;5034535;28;20527;-78
2023/03/18 04:31:34;;;;;;;17.13;9.38;;;9.10;99.90;;;;;;5051906;28;20405;-78
2023/03/18 04:33:59;;;;;;;14.95;8.88;;;9.10;99.90;;;;;;5034526;28;20524;-78
2023/03/18 04:36:27;;;;;;;13.63;8.80;;;9.00;99.90;;;;;;5051826;28;20052;-78
2023/03/18 04:38:53;;;;;;;15.80;10.02;;;9.00;99.90;;;;;;5052337;28;20045;-78
2023/03/18 04:41:19;;;;;;;15.07;9.32;;;9.00;99.90;;;;;;5040015;28;20092;-78
2023/03/18 04:43:46;;;;;;;15.35;9.65;;;9.00;99.90;;;;;;5016088;28;20424;-78
2023/03/18 04:46:12;;;;;;;13.73;9.35;;;8.90;99.90;;;;;;5008389;28;20125;-79
2023/03/18 04:48:38;;;;;;;15.52;9.73;;;8.90;99.90;;;;;;5034106;28;20136;-78
2023/03/18 04:51:04;;;;;;;14.30;9.68;;;8.90;99.90;;;;;;5033795;28;20441;-78
2023/03/18 04:53:31;;;;;;;13.10;9.45;;;8.90;99.90;;;;;;5017695;28;20151;-78
2023/03/18 04:55:56;;;;;;;14.32;9.52;;;8.90;99.90;;;;;;5052248;28;20053;-78
2023/03/18 04:58:22;;;;;;;14.05;9.18;;;8.90;99.90;;;;;;5034578;28;20460;-78
2023/03/18 05:00:48;;;;;;;16.73;9.98;;;8.90;99.90;;;;;;5054442;28;20441;-78
2023/03/18 05:03:14;;;;;;;16.17;10.52;;;9.00;99.90;;;;;;5037648;28;20374;-78
2023/03/18 05:05:40;;;;;;;16.40;10.90;;;8.90;99.90;;;;;;5037394;28;20056;-78
2023/03/18 05:08:06;;;;;;;15.88;10.80;;;8.90;99.90;;;;;;5038179;28;20046;-78
2023/03/18 05:10:32;;;;;;;15.45;10.68;;;8.90;99.90;;;;;;5055348;28;20057;-78
2023/03/18 05:12:58;;;;;;;16.30;10.45;;;9.00;99.90;;;;;;5037637;28;20055;-78
2023/03/18 05:15:24;;;;;;;17.10;11.25;;;9.00;99.90;;;;;;5056001;28;20052;-78
2023/03/18 05:17:49;;;;;;;16.73;10.63;;;9.00;99.90;;;;;;5036979;28;20049;-78
2023/03/18 05:20:15;;;;;;;17.77;10.98;;;9.00;99.90;;;;;;5055225;28;20128;-78
2023/03/18 05:22:41;;;;;;;18.67;11.35;;;9.00;99.90;;;;;;5054728;28;20099;-78
2023/03/18 05:25:09;;;;;;;19.05;12.00;;;9.00;99.90;;;;;;5021625;28;20048;-78
2023/03/18 05:27:36;;;;;;;16.25;11.50;;;9.00;99.90;;;;;;5038677;28;20061;-78
2023/03/18 05:30:03;;;;;;;16.02;11.70;;;9.00;99.90;;;;;;5054610;28;20495;-78
2023/03/18 05:32:30;;;;;;;19.00;12.48;;;9.00;99.90;;;;;;5053828;28;20067;-78
2023/03/18 05:34:56;;;;;;;18.13;12.20;;;9.00;99.90;;;;;;5054136;28;20505;-78
2023/03/18 05:37:23;;;;;;;19.23;12.88;;;9.00;99.90;;;;;;5053812;28;20401;-78
2023/03/18 05:39:48;;;;;;;17.05;12.60;;;9.00;99.90;;;;;;5054444;28;20423;-78
2023/03/18 05:42:14;;;;;;;17.48;11.60;;;9.00;99.90;;;;;;5053761;28;20047;-78
2023/03/18 05:44:41;;;;;;;16.48;11.73;;;9.00;99.90;;;;;;5053354;28;20697;-78
2023/03/18 05:47:10;;;;;;;18.65;12.57;;;9.00;99.90;;;;;;5052878;28;20067;-78
2023/03/18 05:49:36;;;;;;;19.90;13.68;;;9.00;99.90;;;;;;5054018;28;20127;-78
2023/03/18 05:52:02;;;;;;;20.63;13.68;;;9.10;99.90;;;;;;5052961;28;20167;-77
2023/03/18 05:54:28;;;;;;;18.33;13.43;;;9.10;99.90;;;;;;5054216;28;20120;-78
2023/03/18 05:56:53;;;;;;;19.08;13.68;;;9.10;99.90;;;;;;5052771;28;20370;-78
2023/03/18 05:59:21;;;;;;;17.25;13.30;;;9.10;99.90;;;;;;5053482;28;20053;-78
2023/03/18 06:01:47;;;;;;;20.77;14.35;;;9.10;99.90;;;;;;5053199;28;20111;-78
2023/03/18 06:04:16;;;;;;;17.77;13.38;;;9.10;99.90;;;;;;5053562;28;20045;-78
2023/03/18 06:06:42;;;;;;;16.33;12.35;;;9.10;99.90;;;;;;5036068;28;20048;-78
2023/03/18 06:09:09;;;;;;;20.50;13.73;;;9.20;99.90;;;;;;5053431;28;20049;-78
2023/03/18 06:11:35;;;;;;;17.42;12.90;;;9.20;99.90;;;;;;5041977;28;20081;-78
2023/03/18 06:14:03;;;;;;;20.70;12.73;;;9.20;99.90;;;;;;5050370;28;20045;-78
2023/03/18 06:16:29;;;;;;;17.05;12.80;;;9.20;99.90;;;;;;5044827;28;20049;-78
2023/03/18 06:18:56;;;;;;;20.20;13.90;;;9.30;99.90;;;;;;5033641;28;20092;-78
2023/03/18 06:21:22;;;;;;;18.33;12.85;;;9.30;99.90;;;;;;5032773;28;20132;-78
2023/03/18 06:23:48;;;;;;;19.42;13.60;;;9.30;99.90;;;;;;5026460;28;20121;-78
2023/03/18 06:26:14;;;;;;;19.05;14.10;;;9.30;99.90;;;;;;5051576;28;20090;-78
2023/03/18 06:28:40;;;;;;;17.77;14.20;;;9.30;99.90;;;;;;5054360;28;20477;-78
2023/03/18 06:31:05;;;;;;;19.00;13.82;;;9.30;99.90;;;;;;5054063;28;20485;-78
2023/03/18 06:33:31;;;;;;;21.58;15.48;;;9.30;99.90;;;;;;5035745;28;20044;-78
2023/03/18 06:35:59;;;;;;;19.02;13.93;;;9.30;99.90;;;;;;5035414;28;20041;-78
2023/03/18 06:38:26;;;;;;;18.27;13.43;;;9.30;99.90;;;;;;5019414;28;20155;-78
2023/03/18 06:40:53;;;;;;;19.15;13.85;;;9.40;99.90;;;;;;5036505;28;20053;-78
2023/03/18 06:43:19;;;;;;;18.60;14.68;;;9.50;99.90;;;;;;5053383;28;20044;-78
2023/03/18 06:45:45;;;;;;;21.25;14.85;;;9.50;99.90;;;;;;5013787;28;20106;-78
2023/03/18 06:48:12;;;;;;;20.02;14.45;;;9.50;99.90;;;;;;5023397;28;20147;-78
2023/03/18 06:50:38;;;;;;;21.00;15.10;;;9.50;99.90;;;;;;5052530;28;20052;-78
2023/03/18 06:53:05;;;;;;;19.73;14.15;;;9.60;99.90;;;;;;5036203;28;20075;-78
2023/03/18 06:55:31;;;;;;;20.45;13.88;;;9.60;99.90;;;;;;5035530;28;20041;-78
2023/03/18 06:57:57;;;;;;;20.90;14.35;;;9.60;99.90;;;;;;5053740;28;20049;-78
2023/03/18 07:00:24;;;;;;;20.98;13.52;;;9.70;99.90;;;;;;5033948;28;20081;-78
2023/03/18 07:02:51;;;;;;;18.25;13.75;;;9.80;99.90;;;;;;5017128;28;20045;-78
2023/03/18 07:05:17;;;;;;;17.23;12.65;;;9.80;99.90;;;;;;5033410;28;20049;-78
2023/03/18 07:07:43;;;;;;;20.27;13.25;;;9.90;99.90;;;;;;5030827;28;20099;-78
2023/03/18 07:10:19;;;;;;;19.70;14.13;;;10.00;99.90;;;;;;5035769;28;20056;-78
2023/03/18 07:12:46;;;;;;;17.40;13.82;;;10.00;99.90;;;;;;5033920;28;20044;-78
2023/03/18 07:15:12;;;;;;;19.17;13.98;;;10.10;99.90;;;;;;5010433;28;20436;-78
2023/03/18 07:17:38;;;;;;;19.33;13.95;;;10.10;99.90;;;;;;4964519;28;20053;-78
2023/03/18 07:20:04;;;;;;;21.48;14.27;;;10.20;99.90;;;;;;5006588;28;20056;-78
2023/03/18 07:22:30;;;;;;;19.77;13.77;;;10.20;99.90;;;;;;5003744;28;20545;-78
2023/03/18 07:24:56;;;;;;;19.77;13.77;;;10.20;99.90;;;;;;5001797;28;20131;-78
2023/03/18 07:27:22;;;;;;;20.23;13.73;;;10.30;99.90;;;;;;5017603;28;20141;-78
2023/03/18 07:29:48;;;;;;;19.88;13.95;;;10.30;99.90;;;;;;5019986;28;20077;-78
2023/03/18 07:32:14;;;;;;;19.92;14.20;;;10.40;99.90;;;;;;4999843;28;20472;-78
2023/03/18 07:34:40;;;;;;;21.27;14.40;;;10.40;99.90;;;;;;5019226;28;20049;-78
2023/03/18 07:37:06;;;;;;;18.08;14.35;;;10.40;99.90;;;;;;5004327;28;20044;-77
2023/03/18 07:39:32;;;;;;;19.45;14.27;;;10.50;99.90;;;;;;4998969;28;20042;-78
2023/03/18 07:41:59;;;;;;;21.95;15.32;;;10.50;99.90;;;;;;5016816;28;20091;-78
2023/03/18 07:44:25;;;;;;;22.85;15.75;;;10.50;99.90;;;;;;5023288;28;20081;-78
2023/03/18 07:46:51;;;;;;;19.40;15.35;;;10.60;99.90;;;;;;5016446;28;20424;-78
2023/03/18 07:49:16;;;;;;;19.20;14.60;;;10.50;99.90;;;;;;5010696;28;20103;-78
2023/03/18 07:51:42;;;;;;;21.60;15.93;;;10.50;99.90;;;;;;5025287;28;20099;-79
2023/03/18 07:54:08;;;;;;;20.75;14.63;;;10.50;99.90;;;;;;5006033;28;20053;-78
2023/03/18 07:56:34;;;;;;;24.75;16.52;;;10.50;99.90;;;;;;5007701;28;20147;-78
2023/03/18 07:58:59;;;;;;;23.02;15.35;;;10.50;99.90;;;;;;5025403;28;20095;-78
2023/03/18 08:01:26;;;;;;;23.08;16.23;;;10.50;99.90;;;;;;5016003;28;20080;-78
2023/03/18 08:03:52;;;;;;;21.73;16.85;;;10.60;99.90;;;;;;5013349;28;20048;-78
2023/03/18 08:06:18;;;;;;;24.38;16.30;;;10.50;99.90;;;;;;5028678;28;20402;-79
2023/03/18 08:08:45;;;;;;;25.38;18.38;;;10.60;99.90;;;;;;5025434;28;20481;-78
2023/03/18 08:11:11;;;;;;;23.48;17.40;;;10.50;99.90;;;;;;5023108;28;20080;-78
2023/03/18 08:13:38;;;;;;;23.75;16.80;;;10.50;99.90;;;;;;5020371;28;20056;-78
2023/03/18 08:16:04;;;;;;;24.30;19.02;;;10.50;99.90;;;;;;5028353;28;20072;-78
2023/03/18 08:18:30;;;;;;;28.15;19.63;;;10.60;99.90;;;;;;5029428;28;20059;-78
2023/03/18 08:20:56;;;;;;;24.95;18.33;;;10.70;99.90;;;;;;5017829;28;20393;-78
2023/03/18 08:23:23;;;;;;;26.45;20.35;;;10.70;99.90;;;;;;5035024;28;20461;-78
2023/03/18 08:25:49;;;;;;;29.60;20.30;;;10.70;99.90;;;;;;5020087;28;20105;-78
2023/03/18 08:28:16;;;;;;;29.33;21.92;;;10.70;99.90;;;;;;5020867;28;20053;-78
2023/03/18 08:30:42;;;;;;;29.60;22.77;;;10.70;99.90;;;;;;5034819;28;20049;-78
2023/03/18 08:33:08;;;;;;;29.70;21.80;;;10.70;99.90;;;;;;5019946;28;20397;-78
2023/03/18 08:35:35;;;;;;;31.17;22.05;;;11.00;99.90;;;;;;5017266;28;20252;-78
2023/03/18 08:38:01;;;;;;;28.88;22.17;;;10.70;99.90;;;;;;5029403;28;20091;-78
2023/03/18 08:40:26;;;;;;;32.30;24.98;;;10.70;99.90;;;;;;5021330;28;20068;-78
2023/03/18 08:42:52;;;;;;;32.55;24.48;;;10.70;99.90;;;;;;5021671;28;20473;-79
2023/03/18 08:45:19;;;;;;;34.33;23.60;;;10.80;99.90;;;;;;5016001;28;20053;-78
2023/03/18 08:47:45;;;;;;;30.52;24.52;;;10.90;99.90;;;;;;5020230;28;20544;-78
2023/03/18 08:50:12;;;;;;;32.33;26.50;;;11.00;99.90;;;;;;5036415;28;20041;-78
2023/03/18 08:52:40;;;;;;;32.80;24.73;;;11.10;99.90;;;;;;5007537;28;20054;-78
2023/03/18 08:55:06;;;;;;;31.63;25.20;;;11.30;99.90;;;;;;5040304;28;20045;-78
2023/03/18 08:57:32;;;;;;;30.98;26.27;;;11.50;99.90;;;;;;5042093;28;20061;-78
2023/03/18 08:59:58;;;;;;;31.02;24.27;;;11.80;99.90;;;;;;5034594;28;20615;-78
2023/03/18 09:02:23;;;;;;;30.55;24.00;;;12.00;99.90;;;;;;5036160;28;20482;-78
2023/03/18 09:04:50;;;;;;;31.58;23.52;;;12.30;99.90;;;;;;5020010;28;20050;-78
2023/03/18 09:07:15;;;;;;;30.42;23.17;;;12.50;99.90;;;;;;5023141;28;20052;-78
2023/03/18 09:09:42;;;;;;;30.88;22.90;;;12.90;99.90;;;;;;5024091;28;20049;-78
2023/03/18 09:12:08;;;;;;;27.60;21.73;;;13.20;99.90;;;;;;5033302;28;20362;-79
2023/03/18 09:14:34;;;;;;;28.08;21.80;;;13.30;99.90;;;;;;5018455;28;20493;-78
2023/03/18 09:16:59;;;;;;;28.40;21.63;;;13.30;99.90;;;;;;4998656;28;20046;-78
2023/03/18 09:19:26;;;;;;;27.60;21.27;;;13.30;99.90;;;;;;4998912;28;20049;-77
2023/03/18 09:21:52;;;;;;;28.95;21.67;;;13.30;99.90;;;;;;5017903;28;20485;-78
2023/03/18 09:24:18;;;;;;;28.10;22.38;;;13.40;99.90;;;;;;5027633;28;20198;-78
2023/03/18 09:26:43;;;;;;;27.55;23.02;;;13.40;99.90;;;;;;5028662;28;20099;-77
2023/03/18 09:29:10;;;;;;;27.38;22.02;;;13.60;99.90;;;;;;5016038;28;20052;-77
2023/03/18 09:31:37;;;;;;;29.85;22.95;;;13.80;99.90;;;;;;5035209;28;20048;-77
2023/03/18 09:34:03;;;;;;;27.67;21.98;;;14.10;99.90;;;;;;5018354;28;20048;-77
2023/03/18 09:36:29;;;;;;;26.77;22.15;;;14.10;99.90;;;;;;5033005;28;20125;-78
2023/03/18 09:38:55;;;;;;;26.77;21.10;;;14.20;99.90;;;;;;5035809;28;20049;-77
2023/03/18 09:41:43;;;;;;;26.83;21.55;;;14.40;99.90;;;;;;5033408;28;20433;-78
2023/03/18 09:44:21;;;;;;;25.92;21.70;;;14.40;99.90;;;;;;5006529;28;20080;-77
2023/03/18 09:47:17;;;;;;;29.65;22.63;;;14.50;99.90;;;;;;5017227;28;20156;-77
2023/03/18 09:49:56;;;;;;;26.58;21.83;;;14.50;99.90;;;;;;5035885;28;20049;-77
2023/03/18 09:52:33;;;;;;;25.65;21.38;;;14.70;99.90;;;;;;5017981;28;20057;-77
2023/03/18 09:55:26;;;;;;;25.80;21.55;;;14.70;99.90;;;;;;5029443;28;20045;-79
2023/03/18 09:58:01;;;;;;;26.33;20.98;;;14.60;99.90;;;;;;5035219;28;20057;-77
2023/03/18 10:00:35;;;;;;;24.23;19.85;;;14.90;99.90;;;;;;5017777;28;20431;-77
2023/03/18 10:03:26;;;;;;;23.58;18.10;;;15.30;99.90;;;;;;5016414;28;20041;-77
2023/03/18 10:06:06;;;;;;;22.65;17.80;;;15.50;99.90;;;;;;5034132;28;20554;-76
2023/03/18 10:09:08;;;;;;;22.05;16.40;;;15.70;99.90;;;;;;5014281;28;20540;-77
2023/03/18 10:12:00;;;;;;;20.25;16.52;;;15.70;99.90;;;;;;5017748;28;20041;-76
2023/03/18 10:14:25;;;;;;;17.10;12.68;;;15.70;99.90;;;;;;5015323;28;20397;-76
2023/03/18 10:16:51;;;;;;;19.83;16.05;;;15.60;99.90;;;;;;5036548;28;20064;-76
2023/03/18 10:19:18;;;;;;;19.42;16.60;;;15.60;99.90;;;;;;5036898;28;20488;-76
2023/03/18 10:22:02;;;;;;;19.98;16.83;;;15.60;99.90;;;;;;5016942;28;20094;-76
2023/03/18 10:24:35;;;;;;;22.42;17.98;;;15.50;99.90;;;;;;5015454;28;20057;-77
2023/03/18 10:27:09;;;;;;;20.65;16.67;;;15.60;99.90;;;;;;5020354;28;20042;-78
2023/03/18 10:29:59;;;;;;;22.10;17.75;;;15.90;99.90;;;;;;5017958;28;20422;-76
2023/03/18 10:32:34;;;;;;;21.40;17.15;;;16.00;99.90;;;;;;5011933;28;20093;-77
2023/03/18 10:35:40;;;;;;;20.85;17.77;;;15.90;99.90;;;;;;5031434;28;20053;-77
2023/03/18 10:38:26;;;;;;;20.42;15.95;;;15.60;99.90;;;;;;5031372;28;20107;-77
2023/03/18 10:40:53;;;;;;;20.02;15.38;;;15.50;99.90;;;;;;5018227;28;20092;-77
2023/03/18 10:43:24;;;;;;;18.75;15.00;;;15.40;99.90;;;;;;5016474;28;20059;-77
2023/03/18 10:46:01;;;;;;;17.02;14.60;;;15.50;99.90;;;;;;5025988;28;20041;-78
2023/03/18 10:48:31;;;;;;;16.75;13.90;;;15.60;99.90;;;;;;5011652;28;20481;-76
2023/03/18 10:51:08;;;;;;;14.75;12.40;;;15.70;99.90;;;;;;5025321;28;20068;-76
2023/03/18 10:53:56;;;;;;;15.43;12.32;;;16.00;99.90;;;;;;5010398;28;20073;-76
2023/03/18 10:56:22;;;;;;;14.82;11.77;;;16.00;99.90;;;;;;5028277;28;20053;-76
2023/03/18 10:58:51;;;;;;;14.13;11.18;;;15.90;99.90;;;;;;5022633;28;20049;-77
2023/03/18 11:01:19;;;;;;;12.57;10.38;;;15.80;99.90;;;;;;5019239;28;20131;-76
2023/03/18 11:03:57;;;;;;;12.10;10.40;;;15.70;99.90;;;;;;5035321;28;20044;-76
2023/03/18 11:06:40;;;;;;;11.82;9.10;;;15.70;99.90;;;;;;5018381;28;20481;-77
2023/03/18 11:09:11;;;;;;;12.63;9.15;;;16.00;99.90;;;;;;5030938;28;20116;-76
2023/03/18 11:11:45;;;;;;;12.33;8.60;;;16.40;99.90;;;;;;5016202;28;20049;-76
2023/03/18 11:14:19;;;;;;;10.98;8.48;;;16.70;99.90;;;;;;5018360;28;20307;-76
2023/03/18 11:16:55;;;;;;;10.68;8.40;;;17.00;99.90;;;;;;5021054;28;20045;-76
2023/03/18 11:19:46;;;;;;;14.75;11.10;;;17.10;99.90;;;;;;5015821;28;20474;-77
2023/03/18 11:22:22;;;;;;;14.15;11.20;;;17.10;99.90;;;;;;5020430;28;20037;-76
2023/03/18 11:25:12;;;;;;;14.35;10.57;;;16.90;99.90;;;;;;5012625;28;20041;-77
2023/03/18 11:27:41;;;;;;;12.65;10.18;;;16.80;99.90;;;;;;5037466;28;20060;-77
2023/03/18 11:30:17;;;;;;;12.23;9.40;;;16.70;99.90;;;;;;5035904;28;20124;-76
2023/03/18 11:32:57;;;;;;;12.95;10.02;;;16.60;99.90;;;;;;5018290;28;20049;-77
2023/03/18 11:35:42;;;;;;;12.07;9.05;;;16.50;99.90;;;;;;5015131;28;20045;-76
2023/03/18 11:38:31;;;;;;;11.10;7.53;;;16.50;99.90;;;;;;5019980;28;20600;-77
2023/03/18 11:41:17;;;;;;;9.88;6.97;;;16.70;99.90;;;;;;5016748;28;20124;-77
2023/03/18 11:44:04;;;;;;;10.65;7.10;;;17.00;99.90;;;;;;5019177;28;20045;-76
2023/03/18 11:46:34;;;;;;;10.20;7.20;;;17.20;99.90;;;;;;5018485;28;20041;-76
2023/03/18 11:49:00;;;;;;;10.10;7.72;;;17.30;99.90;;;;;;5039093;28;20049;-76
2023/03/18 11:51:45;;;;;;;10.75;7.45;;;17.40;99.90;;;;;;5038509;28;20103;-77
2023/03/18 11:54:40;;;;;;;10.27;7.60;;;17.30;99.90;;;;;;5017426;28;20127;-77
2023/03/18 11:57:16;;;;;;;10.00;7.57;;;17.50;99.90;;;;;;5031303;28;20072;-77
2023/03/18 12:00:11;;;;;;;11.80;8.68;;;17.60;99.90;;;;;;5038726;28;20128;-76
2023/03/18 12:02:53;;;;;;;11.82;8.45;;;17.70;99.90;;;;;;5038721;28;20080;-76
2023/03/18 12:05:47;;;;;;;13.40;9.27;;;17.70;99.90;;;;;;5020132;28;20497;-77
2023/03/18 12:08:55;;;;;;;11.45;8.35;;;17.60;99.90;;;;;;5035212;28;20139;-76
2023/03/18 12:11:33;;;;;;;11.18;8.48;;;17.60;99.90;;;;;;4949852;28;20062;-77
2023/03/18 12:14:24;;;;;;;11.55;8.27;;;17.50;99.90;;;;;;4971516;28;20495;-77
2023/03/18 12:17:22;;;;;;;11.35;8.45;;;17.40;99.90;;;;;;4997814;28;20115;-76
2023/03/18 12:20:11;;;;;;;11.88;9.40;;;17.20;99.90;;;;;;5040483;28;20563;-76
2023/03/18 12:22:37;;;;;;;12.75;9.13;;;17.10;99.90;;;;;;5006157;28;20583;-76
2023/03/18 12:25:21;;;;;;;11.85;9.05;;;17.00;99.90;;;;;;5019003;28;20116;-76
2023/03/18 12:27:59;;;;;;;11.15;8.55;;;16.90;99.90;;;;;;5035937;28;20060;-77
2023/03/18 12:30:50;;;;;;;10.90;8.88;;;17.10;99.90;;;;;;5019944;28;20125;-77
2023/03/18 12:33:46;;;;;;;12.02;9.02;;;17.30;99.90;;;;;;5022430;28;20077;-77
2023/03/18 12:36:31;;;;;;;12.35;9.73;;;17.30;99.90;;;;;;5016006;28;20057;-76
2023/03/18 12:39:25;;;;;;;12.88;9.20;;;17.00;99.90;;;;;;5037556;28;20050;-77
2023/03/18 12:41:57;;;;;;;12.05;10.07;;;16.70;99.90;;;;;;5019131;28;20393;-77
2023/03/18 12:44:57;;;;;;;11.73;9.00;;;16.60;99.90;;;;;;5016835;28;20321;-77
2023/03/18 12:47:36;;;;;;;11.98;9.43;;;16.60;99.90;;;;;;5035240;28;20408;-77
2023/03/18 12:50:01;;;;;;;11.75;9.70;;;16.60;99.90;;;;;;5025407;28;20049;-77
2023/03/18 12:52:44;;;;;;;12.88;9.85;;;16.60;99.90;;;;;;5037607;28;20049;-77